sensor_id;sensor_type;location;lat;lon;timestamp;pressure;altitude;pressure_sealevel;temperature;humidity
34241;BME280;20503;50.200;19.508;2022-08-01T06:01:50;101605.34;;;20.83;100.00
34241;BME280;20503;50.200;19.508;2022-08-01T06:07:01;101599.29;;;21.45;98.72
34241;BME280;20503;50.200;19.508;2022-08-01T06:12:12;101601.70;;;22.06;91.25
34241;BME280;20503;50.200;19.508;2022-08-01T06:17:22;101604.02;;;22.77;95.70
34241;BME280;20503;50.200;19.508;2022-08-01T06:22:33;101589.32;;;23.32;91.75
34241;BME280;20503;50.200;19.508;2022-08-01T06:27:44;101597.84;;;23.72;87.10
34241;BME280;20503;50.200;19.508;2022-08-01T06:32:55;101592.09;;;24.19;85.10
34241;BME280;20503;50.200;19.508;2022-08-01T06:38:05;101593.23;;;24.38;82.16
34241;BME280;20503;50.200;19.508;2022-08-01T06:43:16;101591.28;;;24.38;78.38
34241;BME280;20503;50.200;19.508;2022-08-01T06:48:27;101596.34;;;24.71;79.81
34241;BME280;20503;50.200;19.508;2022-08-01T06:53:38;101606.91;;;25.24;77.82
34241;BME280;20503;50.200;19.508;2022-08-01T06:58:51;101603.34;;;24.79;66.76
34241;BME280;20503;50.200;19.508;2022-08-01T07:03:59;101605.04;;;24.60;71.73
34241;BME280;20503;50.200;19.508;2022-08-01T07:09:10;101598.88;;;24.63;65.96
34241;BME280;20503;50.200;19.508;2022-08-01T07:14:21;101598.86;;;24.68;65.05
34241;BME280;20503;50.200;19.508;2022-08-01T07:19:31;101599.94;;;24.37;65.44
34241;BME280;20503;50.200;19.508;2022-08-01T07:24:42;101607.29;;;24.58;68.46
34241;BME280;20503;50.200;19.508;2022-08-01T07:29:53;101607.24;;;24.48;60.91
34241;BME280;20503;50.200;19.508;2022-08-01T07:35:04;101608.67;;;24.55;65.22
34241;BME280;20503;50.200;19.508;2022-08-01T07:40:14;101608.95;;;24.89;62.74
34241;BME280;20503;50.200;19.508;2022-08-01T07:45:27;101601.66;;;24.53;58.08
34241;BME280;20503;50.200;19.508;2022-08-01T07:50:36;101597.14;;;24.07;57.44
34241;BME280;20503;50.200;19.508;2022-08-01T07:55:48;101601.36;;;24.39;60.51
34241;BME280;20503;50.200;19.508;2022-08-01T08:00:57;101592.40;;;24.37;58.62
34241;BME280;20503;50.200;19.508;2022-08-01T08:06:08;101591.02;;;24.65;56.32
34241;BME280;20503;50.200;19.508;2022-08-01T08:11:19;101596.06;;;24.53;56.23
34241;BME280;20503;50.200;19.508;2022-08-01T08:16:29;101590.75;;;24.71;57.12
34241;BME280;20503;50.200;19.508;2022-08-01T08:21:40;101590.39;;;25.12;54.48
34241;BME280;20503;50.200;19.508;2022-08-01T08:26:53;101600.16;;;25.35;55.73
34241;BME280;20503;50.200;19.508;2022-08-01T08:32:02;101602.61;;;25.51;55.47
34241;BME280;20503;50.200;19.508;2022-08-01T08:37:12;101592.05;;;25.92;54.71
34241;BME280;20503;50.200;19.508;2022-08-01T08:42:23;101597.39;;;25.83;49.49
34241;BME280;20503;50.200;19.508;2022-08-01T08:47:34;101592.22;;;26.10;51.76
34241;BME280;20503;50.200;19.508;2022-08-01T08:52:46;101588.32;;;26.45;51.37
34241;BME280;20503;50.200;19.508;2022-08-01T08:57:56;101585.63;;;26.30;49.43
34241;BME280;20503;50.200;19.508;2022-08-01T09:03:06;101581.83;;;26.49;49.29
34241;BME280;20503;50.200;19.508;2022-08-01T09:08:16;101589.98;;;26.51;46.09
34241;BME280;20503;50.200;19.508;2022-08-01T09:13:27;101585.17;;;26.51;48.89
34241;BME280;20503;50.200;19.508;2022-08-01T09:18:39;101585.48;;;27.12;49.06
34241;BME280;20503;50.200;19.508;2022-08-01T09:23:51;101595.11;;;27.01;45.32
34241;BME280;20503;50.200;19.508;2022-08-01T09:29:07;101596.59;;;26.93;47.26
34241;BME280;20503;50.200;19.508;2022-08-01T09:34:10;101593.91;;;27.12;46.25
34241;BME280;20503;50.200;19.508;2022-08-01T09:39:26;101591.52;;;26.95;44.72
34241;BME280;20503;50.200;19.508;2022-08-01T09:44:38;101596.72;;;27.12;47.11
34241;BME280;20503;50.200;19.508;2022-08-01T09:49:43;101601.97;;;27.18;46.28
34241;BME280;20503;50.200;19.508;2022-08-01T09:55:02;101593.14;;;27.29;45.80
34241;BME280;20503;50.200;19.508;2022-08-01T10:00:05;101599.48;;;27.40;44.88
34241;BME280;20503;50.200;19.508;2022-08-01T10:05:14;101601.51;;;27.34;44.69
34241;BME280;20503;50.200;19.508;2022-08-01T10:10:25;101599.41;;;26.93;44.42
34241;BME280;20503;50.200;19.508;2022-08-01T10:15:36;101613.05;;;26.04;46.08
34241;BME280;20503;50.200;19.508;2022-08-01T10:20:47;101610.84;;;25.96;47.66
34241;BME280;20503;50.200;19.508;2022-08-01T10:25:58;101600.41;;;26.02;48.50
34241;BME280;20503;50.200;19.508;2022-08-01T10:31:08;101606.80;;;26.12;48.86
34241;BME280;20503;50.200;19.508;2022-08-01T10:36:22;101607.71;;;26.03;47.88
34241;BME280;20503;50.200;19.508;2022-08-01T10:41:29;101599.24;;;26.08;47.97
34241;BME280;20503;50.200;19.508;2022-08-01T10:46:46;101610.05;;;26.29;48.27
34241;BME280;20503;50.200;19.508;2022-08-01T10:51:51;101601.25;;;26.41;48.92
34241;BME280;20503;50.200;19.508;2022-08-01T10:57:01;101601.02;;;26.37;48.11
34241;BME280;20503;50.200;19.508;2022-08-01T11:07:48;101594.85;;;25.97;48.32
34241;BME280;20503;50.200;19.508;2022-08-01T11:12:41;101601.59;;;25.91;48.97
34241;BME280;20503;50.200;19.508;2022-08-01T11:17:46;101607.77;;;25.24;50.67
34241;BME280;20503;50.200;19.508;2022-08-01T11:28:19;101598.83;;;24.98;51.23
34241;BME280;20503;50.200;19.508;2022-08-01T11:34:11;101597.41;;;25.05;51.67
34241;BME280;20503;50.200;19.508;2022-08-01T11:38:41;101598.81;;;25.22;50.97
34241;BME280;20503;50.200;19.508;2022-08-01T11:54:10;101603.78;;;25.35;49.92
34241;BME280;20503;50.200;19.508;2022-08-01T11:59:11;101603.26;;;25.28;51.38
34241;BME280;20503;50.200;19.508;2022-08-01T12:04:21;101612.99;;;25.51;51.21
34241;BME280;20503;50.200;19.508;2022-08-01T12:09:31;101600.85;;;25.70;51.01
34241;BME280;20503;50.200;19.508;2022-08-01T12:14:44;101598.67;;;25.52;50.20
34241;BME280;20503;50.200;19.508;2022-08-01T12:19:53;101606.47;;;25.70;50.91
34241;BME280;20503;50.200;19.508;2022-08-01T12:25:10;101609.24;;;25.75;48.61
34241;BME280;20503;50.200;19.508;2022-08-01T12:30:20;101618.59;;;25.56;49.26
34241;BME280;20503;50.200;19.508;2022-08-01T12:35:29;101598.40;;;25.54;50.52
34241;BME280;20503;50.200;19.508;2022-08-01T12:40:41;101607.20;;;25.96;50.85
34241;BME280;20503;50.200;19.508;2022-08-01T12:45:49;101603.89;;;26.27;49.18
34241;BME280;20503;50.200;19.508;2022-08-01T12:50:58;101595.63;;;26.41;49.26
34241;BME280;20503;50.200;19.508;2022-08-01T12:56:09;101589.68;;;26.47;49.42
34241;BME280;20503;50.200;19.508;2022-08-01T13:01:25;101589.36;;;26.87;48.65
34241;BME280;20503;50.200;19.508;2022-08-01T13:06:29;101582.40;;;26.80;48.41
34241;BME280;20503;50.200;19.508;2022-08-01T13:11:41;101576.26;;;27.29;49.93
34241;BME280;20503;50.200;19.508;2022-08-01T13:16:51;101567.97;;;27.61;49.47
34241;BME280;20503;50.200;19.508;2022-08-01T13:22:01;101562.68;;;28.15;49.94
34241;BME280;20503;50.200;19.508;2022-08-01T13:27:20;101560.73;;;28.80;45.92
34241;BME280;20503;50.200;19.508;2022-08-01T13:32:25;101550.80;;;29.14;46.69
34241;BME280;20503;50.200;19.508;2022-08-01T13:37:33;101555.03;;;29.92;44.46
34241;BME280;20503;50.200;19.508;2022-08-01T13:42:44;101548.52;;;30.63;41.20
34241;BME280;20503;50.200;19.508;2022-08-01T13:47:55;101550.84;;;30.91;39.40
34241;BME280;20503;50.200;19.508;2022-08-01T13:53:06;101548.88;;;30.70;38.74
34241;BME280;20503;50.200;19.508;2022-08-01T13:58:16;101558.83;;;30.23;39.32
34241;BME280;20503;50.200;19.508;2022-08-01T14:03:27;101552.77;;;29.81;40.55
34241;BME280;20503;50.200;19.508;2022-08-01T14:08:38;101557.21;;;29.95;41.53
34241;BME280;20503;50.200;19.508;2022-08-01T14:13:48;101559.87;;;29.78;41.58
34241;BME280;20503;50.200;19.508;2022-08-01T14:18:59;101563.05;;;29.36;41.74
34241;BME280;20503;50.200;19.508;2022-08-01T14:24:13;101565.73;;;29.82;43.01
34241;BME280;20503;50.200;19.508;2022-08-01T14:29:21;101564.86;;;30.30;42.19
34241;BME280;20503;50.200;19.508;2022-08-01T14:34:31;101576.21;;;30.74;41.44
34241;BME280;20503;50.200;19.508;2022-08-01T14:39:42;101576.35;;;30.69;40.96
34241;BME280;20503;50.200;19.508;2022-08-01T14:44:53;101570.55;;;29.68;41.32
34241;BME280;20503;50.200;19.508;2022-08-01T14:50:06;101576.83;;;29.24;42.19
34241;BME280;20503;50.200;19.508;2022-08-01T14:55:14;101569.55;;;28.46;43.94
34241;BME280;20503;50.200;19.508;2022-08-01T15:00:25;101567.80;;;27.53;45.72
34241;BME280;20503;50.200;19.508;2022-08-01T15:05:36;101573.02;;;27.41;47.25
34241;BME280;20503;50.200;19.508;2022-08-01T15:10:47;101566.78;;;27.44;47.33
34241;BME280;20503;50.200;19.508;2022-08-01T15:15:57;101562.82;;;27.45;47.73
34241;BME280;20503;50.200;19.508;2022-08-01T15:21:08;101566.86;;;27.16;48.17
34241;BME280;20503;50.200;19.508;2022-08-01T15:26:18;101576.13;;;26.59;49.60
34241;BME280;20503;50.200;19.508;2022-08-01T15:31:29;101569.93;;;26.24;49.94
34241;BME280;20503;50.200;19.508;2022-08-01T15:36:40;101568.84;;;26.20;50.66
34241;BME280;20503;50.200;19.508;2022-08-01T15:41:51;101580.98;;;26.10;51.22
34241;BME280;20503;50.200;19.508;2022-08-01T15:47:02;101568.63;;;26.11;52.30
34241;BME280;20503;50.200;19.508;2022-08-01T15:52:12;101570.62;;;26.06;52.35
34241;BME280;20503;50.200;19.508;2022-08-01T15:57:23;101574.43;;;25.76;52.98
34241;BME280;20503;50.200;19.508;2022-08-01T16:02:33;101579.34;;;25.51;54.51
34241;BME280;20503;50.200;19.508;2022-08-01T16:07:44;101578.05;;;25.18;55.58
34241;BME280;20503;50.200;19.508;2022-08-01T16:12:55;101586.47;;;25.23;55.30
34241;BME280;20503;50.200;19.508;2022-08-01T16:18:06;101584.22;;;25.10;56.13
34241;BME280;20503;50.200;19.508;2022-08-01T16:23:16;101582.60;;;24.90;56.83
34241;BME280;20503;50.200;19.508;2022-08-01T16:28:27;101590.20;;;24.64;57.27
34241;BME280;20503;50.200;19.508;2022-08-01T16:33:38;101592.13;;;24.54;57.88
34241;BME280;20503;50.200;19.508;2022-08-01T16:38:48;101597.77;;;24.59;57.75
34241;BME280;20503;50.200;19.508;2022-08-01T16:43:59;101607.52;;;24.46;59.57
34241;BME280;20503;50.200;19.508;2022-08-01T16:49:10;101593.25;;;24.23;59.57
34241;BME280;20503;50.200;19.508;2022-08-01T16:54:21;101604.97;;;24.20;60.03
34241;BME280;20503;50.200;19.508;2022-08-01T16:59:32;101599.38;;;24.15;59.88
34241;BME280;20503;50.200;19.508;2022-08-01T17:04:42;101605.83;;;24.20;59.83
34241;BME280;20503;50.200;19.508;2022-08-01T17:09:53;101610.03;;;24.23;60.26
34241;BME280;20503;50.200;19.508;2022-08-01T17:15:05;101615.05;;;24.16;60.53
34241;BME280;20503;50.200;19.508;2022-08-01T17:20:14;101620.91;;;24.09;60.48
34241;BME280;20503;50.200;19.508;2022-08-01T17:25:25;101624.82;;;24.03;60.62
34241;BME280;20503;50.200;19.508;2022-08-01T17:30:36;101620.61;;;23.96;61.08
34241;BME280;20503;50.200;19.508;2022-08-01T17:35:46;101624.23;;;23.91;61.48
34241;BME280;20503;50.200;19.508;2022-08-01T17:40:57;101630.04;;;23.80;62.03
34241;BME280;20503;50.200;19.508;2022-08-01T17:46:08;101631.41;;;23.67;63.35
34241;BME280;20503;50.200;19.508;2022-08-01T17:51:19;101646.94;;;23.43;64.76
34241;BME280;20503;50.200;19.508;2022-08-01T17:56:29;101636.79;;;23.27;65.14
34241;BME280;20503;50.200;19.508;2022-08-01T18:01:40;101645.95;;;23.18;65.70
34241;BME280;20503;50.200;19.508;2022-08-01T18:06:51;101655.38;;;23.07;66.25
34241;BME280;20503;50.200;19.508;2022-08-01T18:12:02;101658.33;;;22.96;66.42
34241;BME280;20503;50.200;19.508;2022-08-01T18:17:12;101672.50;;;22.84;66.93
34241;BME280;20503;50.200;19.508;2022-08-01T18:22:23;101667.67;;;22.75;67.27
34241;BME280;20503;50.200;19.508;2022-08-01T18:27:34;101672.34;;;22.64;67.68
34241;BME280;20503;50.200;19.508;2022-08-01T18:32:44;101662.18;;;22.53;68.15
34241;BME280;20503;50.200;19.508;2022-08-01T18:37:55;101660.42;;;22.42;68.57
34241;BME280;20503;50.200;19.508;2022-08-01T18:43:06;101671.68;;;22.31;69.18
34241;BME280;20503;50.200;19.508;2022-08-01T18:48:17;101678.50;;;22.13;69.96
34241;BME280;20503;50.200;19.508;2022-08-01T18:53:27;101684.58;;;21.84;70.82
34241;BME280;20503;50.200;19.508;2022-08-01T18:58:39;101691.55;;;21.65;71.35
34241;BME280;20503;50.200;19.508;2022-08-01T19:03:49;101693.33;;;21.54;71.67
34241;BME280;20503;50.200;19.508;2022-08-01T19:09:00;101695.72;;;21.46;72.38
34241;BME280;20503;50.200;19.508;2022-08-01T19:14:10;101702.85;;;21.37;73.63
34241;BME280;20503;50.200;19.508;2022-08-01T19:19:21;101710.13;;;21.21;74.03
34241;BME280;20503;50.200;19.508;2022-08-01T19:24:32;101707.52;;;21.15;74.02
34241;BME280;20503;50.200;19.508;2022-08-01T19:29:48;101717.66;;;21.04;74.20
34241;BME280;20503;50.200;19.508;2022-08-01T19:35:02;101727.80;;;20.94;74.41
34241;BME280;20503;50.200;19.508;2022-08-01T19:40:05;101722.28;;;20.83;74.65
34241;BME280;20503;50.200;19.508;2022-08-01T19:45:15;101720.41;;;20.72;74.87
34241;BME280;20503;50.200;19.508;2022-08-01T19:50:26;101720.72;;;20.59;75.09
34241;BME280;20503;50.200;19.508;2022-08-01T19:55:37;101731.60;;;20.44;75.22
34241;BME280;20503;50.200;19.508;2022-08-01T20:00:47;101731.31;;;20.29;75.63
34241;BME280;20503;50.200;19.508;2022-08-01T20:06:00;101720.98;;;20.13;75.74
34241;BME280;20503;50.200;19.508;2022-08-01T20:11:08;101739.35;;;20.14;76.03
34241;BME280;20503;50.200;19.508;2022-08-01T20:16:19;101740.83;;;20.05;76.08
34241;BME280;20503;50.200;19.508;2022-08-01T20:21:32;101745.66;;;19.98;76.41
34241;BME280;20503;50.200;19.508;2022-08-01T20:26:44;101758.10;;;19.95;76.84
34241;BME280;20503;50.200;19.508;2022-08-01T20:31:52;101763.57;;;19.90;77.23
34241;BME280;20503;50.200;19.508;2022-08-01T20:37:02;101763.80;;;19.89;77.33
34241;BME280;20503;50.200;19.508;2022-08-01T20:42:14;101755.73;;;19.87;77.35
34241;BME280;20503;50.200;19.508;2022-08-01T20:47:24;101754.27;;;19.85;77.58
34241;BME280;20503;50.200;19.508;2022-08-01T20:52:34;101763.21;;;19.87;77.67
34241;BME280;20503;50.200;19.508;2022-08-01T20:57:49;101764.30;;;19.86;77.75
34241;BME280;20503;50.200;19.508;2022-08-01T21:18:37;101760.42;;;19.87;77.99
34241;BME280;20503;50.200;19.508;2022-08-01T21:28:53;101760.69;;;19.85;78.32
34241;BME280;20503;50.200;19.508;2022-08-01T21:34:01;101772.64;;;19.86;78.52
34241;BME280;20503;50.200;19.508;2022-08-01T21:39:11;101773.13;;;19.83;78.61
34241;BME280;20503;50.200;19.508;2022-08-01T21:44:23;101777.70;;;19.89;79.00
34241;BME280;20503;50.200;19.508;2022-08-01T21:49:32;101776.12;;;19.93;79.17
34241;BME280;20503;50.200;19.508;2022-08-01T21:54:55;101769.00;;;19.97;79.27
34241;BME280;20503;50.200;19.508;2022-08-01T22:05:12;101772.76;;;20.02;79.42
34241;BME280;20503;50.200;19.508;2022-08-01T22:10:17;101778.65;;;20.06;79.60
34241;BME280;20503;50.200;19.508;2022-08-01T22:15:28;101775.38;;;20.09;79.67
34241;BME280;20503;50.200;19.508;2022-08-01T22:20:37;101774.31;;;20.10;79.68
34241;BME280;20503;50.200;19.508;2022-08-01T22:25:51;101764.38;;;20.14;79.58
34241;BME280;20503;50.200;19.508;2022-08-01T22:30:59;101767.16;;;20.14;79.50
34241;BME280;20503;50.200;19.508;2022-08-01T22:36:09;101764.38;;;20.14;79.46
34241;BME280;20503;50.200;19.508;2022-08-01T22:41:24;101762.93;;;20.11;79.44
34241;BME280;20503;50.200;19.508;2022-08-01T22:51:56;101751.94;;;20.05;79.43
34241;BME280;20503;50.200;19.508;2022-08-01T22:56:56;101747.08;;;20.00;79.66
34241;BME280;20503;50.200;19.508;2022-08-01T23:02:04;101763.07;;;19.93;79.68
34241;BME280;20503;50.200;19.508;2022-08-01T23:07:22;101750.88;;;19.83;79.84
34241;BME280;20503;50.200;19.508;2022-08-01T23:12:26;101723.13;;;19.60;79.94
34241;BME280;20503;50.200;19.508;2022-08-01T23:17:36;101769.75;;;19.81;80.11
34241;BME280;20503;50.200;19.508;2022-08-01T23:22:46;101766.38;;;19.79;80.39
34241;BME280;20503;50.200;19.508;2022-08-01T23:27:58;101756.34;;;19.78;80.33
34241;BME280;20503;50.200;19.508;2022-08-01T23:33:07;101762.73;;;19.78;80.51
34241;BME280;20503;50.200;19.508;2022-08-01T23:38:18;101764.42;;;19.79;80.61
34241;BME280;20503;50.200;19.508;2022-08-01T23:43:29;101766.38;;;19.79;80.95
34241;BME280;20503;50.200;19.508;2022-08-01T23:48:39;101771.80;;;19.74;81.04
34241;BME280;20503;50.200;19.508;2022-08-01T23:53:50;101773.98;;;19.72;81.17
34241;BME280;20503;50.200;19.508;2022-08-01T23:59:00;101788.86;;;19.66;81.48
